sensor_id;sensor_type;location;lat;lon;timestamp;pressure;altitude;pressure_sealevel;temperature;humidity
11888;BME280;6003;42.756;23.130;2022-08-03T00:00:09;157439.44;;;19.46;68.59
11888;BME280;6003;42.756;23.130;2022-08-03T00:02:39;157404.81;;;19.33;68.94
11888;BME280;6003;42.756;23.130;2022-08-03T00:05:06;157395.50;;;19.29;69.72
11888;BME280;6003;42.756;23.130;2022-08-03T00:07:35;157382.19;;;19.24;69.73
11888;BME280;6003;42.756;23.130;2022-08-03T00:10:03;157371.56;;;19.20;70.04
11888;BME280;6003;42.756;23.130;2022-08-03T00:12:31;157356.94;;;19.14;70.31
11888;BME280;6003;42.756;23.130;2022-08-03T00:14:57;157336.97;;;19.07;70.75
11888;BME280;6003;42.756;23.130;2022-08-03T00:17:24;157302.44;;;18.93;71.63
11888;BME280;6003;42.756;23.130;2022-08-03T00:19:51;157259.84;;;18.77;72.20
11888;BME280;6003;42.756;23.130;2022-08-03T00:22:18;157262.50;;;18.78;72.57
11888;BME280;6003;42.756;23.130;2022-08-03T00:24:46;157243.84;;;18.71;73.13
11888;BME280;6003;42.756;23.130;2022-08-03T00:27:13;157169.38;;;18.42;72.90
11888;BME280;6003;42.756;23.130;2022-08-03T00:29:53;157201.28;;;18.55;73.58
11888;BME280;6003;42.756;23.130;2022-08-03T00:32:20;157180.00;;;18.46;74.14
11888;BME280;6003;42.756;23.130;2022-08-03T00:34:46;157148.09;;;18.34;74.35
11888;BME280;6003;42.756;23.130;2022-08-03T00:37:13;157124.19;;;18.25;75.28
11888;BME280;6003;42.756;23.130;2022-08-03T00:39:40;157098.88;;;18.15;75.32
11888;BME280;6003;42.756;23.130;2022-08-03T00:42:12;157074.97;;;18.06;75.27
11888;BME280;6003;42.756;23.130;2022-08-03T00:44:39;157055.06;;;17.98;75.57
11888;BME280;6003;42.756;23.130;2022-08-03T00:47:07;157047.09;;;17.95;75.71
11888;BME280;6003;42.756;23.130;2022-08-03T00:49:34;157023.13;;;17.86;76.42
11888;BME280;6003;42.756;23.130;2022-08-03T00:52:02;157003.22;;;17.78;76.45
11888;BME280;6003;42.756;23.130;2022-08-03T00:54:29;156999.16;;;17.77;76.61
11888;BME280;6003;42.756;23.130;2022-08-03T00:56:56;156976.56;;;17.68;76.99
11888;BME280;6003;42.756;23.130;2022-08-03T00:59:24;156967.28;;;17.65;77.13
11888;BME280;6003;42.756;23.130;2022-08-03T01:01:52;156965.97;;;17.64;77.00
11888;BME280;6003;42.756;23.130;2022-08-03T01:04:19;156959.31;;;17.62;76.65
11888;BME280;6003;42.756;23.130;2022-08-03T01:06:49;156956.63;;;17.60;77.32
11888;BME280;6003;42.756;23.130;2022-08-03T01:09:22;156948.66;;;17.57;77.12
11888;BME280;6003;42.756;23.130;2022-08-03T01:11:57;156961.97;;;17.63;76.93
11888;BME280;6003;42.756;23.130;2022-08-03T01:14:32;156955.31;;;17.60;76.95
11888;BME280;6003;42.756;23.130;2022-08-03T01:17:04;156964.66;;;17.64;77.13
11888;BME280;6003;42.756;23.130;2022-08-03T01:19:44;156959.31;;;17.62;76.81
11888;BME280;6003;42.756;23.130;2022-08-03T01:22:39;156959.31;;;17.62;76.75
11888;BME280;6003;42.756;23.130;2022-08-03T01:25:18;156961.97;;;17.63;76.77
11888;BME280;6003;42.756;23.130;2022-08-03T01:27:53;156959.31;;;17.62;76.89
11888;BME280;6003;42.756;23.130;2022-08-03T01:30:27;156961.97;;;17.63;76.92
11888;BME280;6003;42.756;23.130;2022-08-03T01:32:59;156950.03;;;17.58;77.70
11888;BME280;6003;42.756;23.130;2022-08-03T01:35:32;156914.16;;;17.44;78.09
11888;BME280;6003;42.756;23.130;2022-08-03T01:38:03;156902.16;;;17.40;78.11
11888;BME280;6003;42.756;23.130;2022-08-03T01:40:33;156892.88;;;17.36;78.30
11888;BME280;6003;42.756;23.130;2022-08-03T01:43:03;156879.59;;;17.31;78.89
11888;BME280;6003;42.756;23.130;2022-08-03T01:45:33;156867.66;;;17.26;78.79
11888;BME280;6003;42.756;23.130;2022-08-03T01:48:02;156847.72;;;17.19;78.80
11888;BME280;6003;42.756;23.130;2022-08-03T01:51:05;156831.78;;;17.12;79.43
11888;BME280;6003;42.756;23.130;2022-08-03T01:53:34;156821.13;;;17.08;80.25
11888;BME280;6003;42.756;23.130;2022-08-03T01:56:03;156794.59;;;16.98;80.78
11888;BME280;6003;42.756;23.130;2022-08-03T01:58:34;156761.34;;;16.85;81.42
11888;BME280;6003;42.756;23.130;2022-08-03T02:01:04;156750.75;;;16.81;81.52
11888;BME280;6003;42.756;23.130;2022-08-03T02:03:36;156740.09;;;16.77;81.41
11888;BME280;6003;42.756;23.130;2022-08-03T02:06:04;156726.81;;;16.72;81.86
11888;BME280;6003;42.756;23.130;2022-08-03T02:08:32;156701.53;;;16.62;82.21
11888;BME280;6003;42.756;23.130;2022-08-03T02:11:01;156696.28;;;16.60;82.48
11888;BME280;6003;42.756;23.130;2022-08-03T02:13:29;156680.28;;;16.54;82.38
11888;BME280;6003;42.756;23.130;2022-08-03T02:16:00;156664.38;;;16.48;83.01
11888;BME280;6003;42.756;23.130;2022-08-03T02:18:30;156651.13;;;16.43;82.92
11888;BME280;6003;42.756;23.130;2022-08-03T02:20:58;156641.78;;;16.39;83.02
11888;BME280;6003;42.756;23.130;2022-08-03T02:23:26;156640.47;;;16.39;83.06
11888;BME280;6003;42.756;23.130;2022-08-03T02:25:57;156631.19;;;16.35;83.04
11888;BME280;6003;42.756;23.130;2022-08-03T02:28:31;156617.91;;;16.30;83.46
11888;BME280;6003;42.756;23.130;2022-08-03T02:31:02;156600.66;;;16.23;84.61
11888;BME280;6003;42.756;23.130;2022-08-03T02:33:37;156591.38;;;16.20;84.91
11888;BME280;6003;42.756;23.130;2022-08-03T02:36:05;156587.38;;;16.18;84.56
11888;BME280;6003;42.756;23.130;2022-08-03T02:38:35;156575.41;;;16.14;84.92
11888;BME280;6003;42.756;23.130;2022-08-03T02:41:08;156576.78;;;16.14;85.30
11888;BME280;6003;42.756;23.130;2022-08-03T02:43:39;156570.13;;;16.12;84.92
11888;BME280;6003;42.756;23.130;2022-08-03T02:46:08;156571.47;;;16.12;84.82
11888;BME280;6003;42.756;23.130;2022-08-03T02:48:40;156578.09;;;16.15;84.86
11888;BME280;6003;42.756;23.130;2022-08-03T02:51:07;156570.13;;;16.12;84.77
11888;BME280;6003;42.756;23.130;2022-08-03T02:53:35;156574.09;;;16.13;84.21
11888;BME280;6003;42.756;23.130;2022-08-03T02:56:03;156558.19;;;16.07;84.16
11888;BME280;6003;42.756;23.130;2022-08-03T02:58:31;156552.84;;;16.05;83.83
11888;BME280;6003;42.756;23.130;2022-08-03T03:00:59;156575.41;;;16.14;84.25
11888;BME280;6003;42.756;23.130;2022-08-03T03:03:27;156555.53;;;16.06;84.70
11888;BME280;6003;42.756;23.130;2022-08-03T03:05:56;156555.53;;;16.06;84.54
11888;BME280;6003;42.756;23.130;2022-08-03T03:08:24;156560.81;;;16.08;85.13
11888;BME280;6003;42.756;23.130;2022-08-03T03:10:54;156592.72;;;16.20;84.54
11888;BME280;6003;42.756;23.130;2022-08-03T03:13:22;156595.34;;;16.21;84.41
11888;BME280;6003;42.756;23.130;2022-08-03T03:15:49;156607.31;;;16.26;84.54
11888;BME280;6003;42.756;23.130;2022-08-03T03:18:19;156613.94;;;16.29;83.69
11888;BME280;6003;42.756;23.130;2022-08-03T03:20:46;156621.91;;;16.32;83.82
11888;BME280;6003;42.756;23.130;2022-08-03T03:23:16;156609.94;;;16.27;84.60
11888;BME280;6003;42.756;23.130;2022-08-03T03:25:43;156604.63;;;16.25;84.87
11888;BME280;6003;42.756;23.130;2022-08-03T03:28:11;156586.06;;;16.18;84.30
11888;BME280;6003;42.756;23.130;2022-08-03T03:30:38;156576.78;;;16.14;84.70
11888;BME280;6003;42.756;23.130;2022-08-03T03:33:05;156576.78;;;16.14;84.85
11888;BME280;6003;42.756;23.130;2022-08-03T03:35:33;156611.25;;;16.28;84.93
11888;BME280;6003;42.756;23.130;2022-08-03T03:38:00;156644.47;;;16.40;84.20
11888;BME280;6003;42.756;23.130;2022-08-03T03:40:29;156653.75;;;16.44;83.96
11888;BME280;6003;42.756;23.130;2022-08-03T03:42:56;156720.16;;;16.69;83.97
11888;BME280;6003;42.756;23.130;2022-08-03T03:45:23;156765.34;;;16.87;82.42
11888;BME280;6003;42.756;23.130;2022-08-03T03:47:50;156778.66;;;16.92;82.47
11888;BME280;6003;42.756;23.130;2022-08-03T03:50:17;156774.66;;;16.90;81.94
11888;BME280;6003;42.756;23.130;2022-08-03T03:52:44;156786.63;;;16.95;81.58
11888;BME280;6003;42.756;23.130;2022-08-03T03:55:15;156794.59;;;16.98;81.77
11888;BME280;6003;42.756;23.130;2022-08-03T03:57:43;156814.47;;;17.06;81.61
11888;BME280;6003;42.756;23.130;2022-08-03T04:00:11;156830.47;;;17.12;81.17
11888;BME280;6003;42.756;23.130;2022-08-03T04:02:38;156850.34;;;17.20;81.54
11888;BME280;6003;42.756;23.130;2022-08-03T04:05:06;156866.28;;;17.26;81.54
11888;BME280;6003;42.756;23.130;2022-08-03T04:07:56;156870.28;;;17.27;81.42
11888;BME280;6003;42.756;23.130;2022-08-03T04:10:42;156887.53;;;17.34;80.86
11888;BME280;6003;42.756;23.130;2022-08-03T04:13:28;156911.47;;;17.43;81.10
11888;BME280;6003;42.756;23.130;2022-08-03T04:15:56;156914.16;;;17.44;80.20
11888;BME280;6003;42.756;23.130;2022-08-03T04:18:27;156932.72;;;17.51;80.64
11888;BME280;6003;42.756;23.130;2022-08-03T04:20:58;156954.00;;;17.59;80.74
11888;BME280;6003;42.756;23.130;2022-08-03T04:23:30;156955.31;;;17.60;80.94
11888;BME280;6003;42.756;23.130;2022-08-03T04:26:00;156961.97;;;17.63;80.99
11888;BME280;6003;42.756;23.130;2022-08-03T04:28:29;156967.28;;;17.65;80.96
11888;BME280;6003;42.756;23.130;2022-08-03T04:30:58;157219.91;;;18.62;79.93
11888;BME280;6003;42.756;23.130;2022-08-03T04:33:28;157640.47;;;20.23;74.29
11888;BME280;6003;42.756;23.130;2022-08-03T04:36:00;158040.13;;;21.77;67.24
11888;BME280;6003;42.756;23.130;2022-08-03T04:38:29;158402.88;;;23.16;61.92
11888;BME280;6003;42.756;23.130;2022-08-03T04:40:58;158712.53;;;24.35;57.39
11888;BME280;6003;42.756;23.130;2022-08-03T04:43:26;158942.28;;;25.23;55.79
11888;BME280;6003;42.756;23.130;2022-08-03T04:45:57;159110.69;;;25.87;53.46
11888;BME280;6003;42.756;23.130;2022-08-03T04:48:25;159196.19;;;26.20;52.03
11888;BME280;6003;42.756;23.130;2022-08-03T04:50:52;159186.88;;;26.16;52.05
11888;BME280;6003;42.756;23.130;2022-08-03T04:53:20;159295.16;;;26.58;51.17
11888;BME280;6003;42.756;23.130;2022-08-03T04:55:47;159308.53;;;26.63;49.41
11888;BME280;6003;42.756;23.130;2022-08-03T04:58:14;159503.81;;;27.37;49.97
11888;BME280;6003;42.756;23.130;2022-08-03T05:00:41;159446.28;;;27.15;47.80
11888;BME280;6003;42.756;23.130;2022-08-03T05:03:11;159292.50;;;26.57;50.25
11888;BME280;6003;42.756;23.130;2022-08-03T05:05:38;159408.78;;;27.01;48.84
11888;BME280;6003;42.756;23.130;2022-08-03T05:08:05;159589.41;;;27.70;46.73
11888;BME280;6003;42.756;23.130;2022-08-03T05:10:32;159701.84;;;28.13;47.52
11888;BME280;6003;42.756;23.130;2022-08-03T05:12:58;159653.69;;;27.95;47.14
11888;BME280;6003;42.756;23.130;2022-08-03T05:15:25;159551.94;;;27.56;48.97
11888;BME280;6003;42.756;23.130;2022-08-03T05:17:52;159604.13;;;27.76;46.99
11888;BME280;6003;42.756;23.130;2022-08-03T05:20:21;159465.03;;;27.22;49.54
11888;BME280;6003;42.756;23.130;2022-08-03T05:22:48;159293.84;;;26.57;49.48
11888;BME280;6003;42.756;23.130;2022-08-03T05:25:15;159339.28;;;26.74;51.21
11888;BME280;6003;42.756;23.130;2022-08-03T05:27:41;159625.59;;;27.84;49.43
11888;BME280;6003;42.756;23.130;2022-08-03T05:30:09;159752.72;;;28.32;46.94
11888;BME280;6003;42.756;23.130;2022-08-03T05:32:36;159701.84;;;28.13;48.26
11888;BME280;6003;42.756;23.130;2022-08-03T05:35:03;159469.03;;;27.24;48.76
11888;BME280;6003;42.756;23.130;2022-08-03T05:37:32;159642.97;;;27.90;47.11
11888;BME280;6003;42.756;23.130;2022-08-03T05:39:59;159220.25;;;26.29;51.12
11888;BME280;6003;42.756;23.130;2022-08-03T05:42:26;159263.03;;;26.45;51.24
11888;BME280;6003;42.756;23.130;2022-08-03T05:44:53;159071.91;;;25.72;53.53
11888;BME280;6003;42.756;23.130;2022-08-03T05:47:19;159029.13;;;25.56;52.92
11888;BME280;6003;42.756;23.130;2022-08-03T05:49:47;159035.81;;;25.58;53.69
11888;BME280;6003;42.756;23.130;2022-08-03T05:52:14;158812.69;;;24.73;56.00
11888;BME280;6003;42.756;23.130;2022-08-03T05:54:43;159018.41;;;25.52;54.61
11888;BME280;6003;42.756;23.130;2022-08-03T05:57:10;159236.28;;;26.35;53.35
11888;BME280;6003;42.756;23.130;2022-08-03T05:59:37;159324.56;;;26.69;52.73
11888;BME280;6003;42.756;23.130;2022-08-03T06:02:04;159204.22;;;26.23;52.21
11888;BME280;6003;42.756;23.130;2022-08-03T06:04:31;159156.13;;;26.04;53.69
11888;BME280;6003;42.756;23.130;2022-08-03T06:06:58;159289.78;;;26.55;54.82
11888;BME280;6003;42.756;23.130;2022-08-03T06:09:24;159515.88;;;27.42;49.28
11888;BME280;6003;42.756;23.130;2022-08-03T06:11:53;159624.25;;;27.83;50.23
11888;BME280;6003;42.756;23.130;2022-08-03T06:14:20;159537.22;;;27.50;52.52
11888;BME280;6003;42.756;23.130;2022-08-03T06:16:46;159434.25;;;27.11;51.94
11888;BME280;6003;42.756;23.130;2022-08-03T06:19:30;159379.38;;;26.90;51.94
11888;BME280;6003;42.756;23.130;2022-08-03T06:21:58;159272.38;;;26.49;51.19
11888;BME280;6003;42.756;23.130;2022-08-03T06:24:24;159154.78;;;26.04;54.67
11888;BME280;6003;42.756;23.130;2022-08-03T06:26:53;159232.31;;;26.33;52.70
11888;BME280;6003;42.756;23.130;2022-08-03T06:29:20;159297.88;;;26.59;53.48
11888;BME280;6003;42.756;23.130;2022-08-03T06:31:47;159055.81;;;25.66;54.66
11888;BME280;6003;42.756;23.130;2022-08-03T06:34:14;159176.13;;;26.12;53.12
11888;BME280;6003;42.756;23.130;2022-08-03T06:36:41;159384.75;;;26.92;51.50
11888;BME280;6003;42.756;23.130;2022-08-03T06:39:08;159284.47;;;26.53;52.73
11888;BME280;6003;42.756;23.130;2022-08-03T06:41:35;159449.00;;;27.16;50.58
11888;BME280;6003;42.756;23.130;2022-08-03T06:44:03;159447.63;;;27.16;50.94
11888;BME280;6003;42.756;23.130;2022-08-03T06:46:30;159582.72;;;27.67;50.62
11888;BME280;6003;42.756;23.130;2022-08-03T06:48:57;159737.97;;;28.27;48.59
11888;BME280;6003;42.756;23.130;2022-08-03T06:51:24;159530.53;;;27.48;50.23
11888;BME280;6003;42.756;23.130;2022-08-03T06:53:51;159701.84;;;28.13;51.58
11888;BME280;6003;42.756;23.130;2022-08-03T06:56:18;159664.38;;;27.99;49.19
11888;BME280;6003;42.756;23.130;2022-08-03T06:58:45;159768.75;;;28.39;49.39
11888;BME280;6003;42.756;23.130;2022-08-03T07:01:14;159787.56;;;28.46;48.13
11888;BME280;6003;42.756;23.130;2022-08-03T07:03:41;159737.97;;;28.27;49.77
11888;BME280;6003;42.756;23.130;2022-08-03T07:06:08;159846.41;;;28.68;47.90
11888;BME280;6003;42.756;23.130;2022-08-03T07:08:35;159886.63;;;28.84;48.28
11888;BME280;6003;42.756;23.130;2022-08-03T07:11:03;159937.50;;;29.03;52.13
11888;BME280;6003;42.756;23.130;2022-08-03T07:13:32;159812.97;;;28.55;49.62
11888;BME280;6003;42.756;23.130;2022-08-03T07:15:59;159707.22;;;28.15;49.80
11888;BME280;6003;42.756;23.130;2022-08-03T07:18:27;159364.66;;;26.84;51.24
11888;BME280;6003;42.756;23.130;2022-08-03T07:20:54;159439.53;;;27.13;54.82
11888;BME280;6003;42.756;23.130;2022-08-03T07:23:21;159605.44;;;27.76;49.22
11888;BME280;6003;42.756;23.130;2022-08-03T07:25:48;159723.25;;;28.21;47.97
11888;BME280;6003;42.756;23.130;2022-08-03T07:28:15;159794.22;;;28.48;47.08
11888;BME280;6003;42.756;23.130;2022-08-03T07:30:42;159808.94;;;28.54;48.10
11888;BME280;6003;42.756;23.130;2022-08-03T07:33:09;159830.38;;;28.62;47.08
11888;BME280;6003;42.756;23.130;2022-08-03T07:35:38;159796.94;;;28.49;46.50
11888;BME280;6003;42.756;23.130;2022-08-03T07:38:05;159786.19;;;28.45;47.38
11888;BME280;6003;42.756;23.130;2022-08-03T07:40:32;159788.91;;;28.46;46.02
11888;BME280;6003;42.756;23.130;2022-08-03T07:42:59;159766.09;;;28.38;46.47
11888;BME280;6003;42.756;23.130;2022-08-03T07:45:28;159853.13;;;28.71;47.99
11888;BME280;6003;42.756;23.130;2022-08-03T07:47:55;159843.75;;;28.67;46.35
11888;BME280;6003;42.756;23.130;2022-08-03T07:50:22;159802.28;;;28.51;45.18
11888;BME280;6003;42.756;23.130;2022-08-03T07:52:50;159845.09;;;28.68;45.19
11888;BME280;6003;42.756;23.130;2022-08-03T07:55:19;159882.56;;;28.82;45.13
11888;BME280;6003;42.756;23.130;2022-08-03T07:57:47;159894.66;;;28.87;45.51
11888;BME280;6003;42.756;23.130;2022-08-03T08:00:25;159921.38;;;28.97;43.65
11888;BME280;6003;42.756;23.130;2022-08-03T08:02:51;159993.75;;;29.24;45.41
11888;BME280;6003;42.756;23.130;2022-08-03T08:05:18;160076.78;;;29.56;43.79
11888;BME280;6003;42.756;23.130;2022-08-03T08:07:45;160111.69;;;29.70;44.59
11888;BME280;6003;42.756;23.130;2022-08-03T08:10:14;160090.19;;;29.61;44.90
11888;BME280;6003;42.756;23.130;2022-08-03T08:12:41;160103.66;;;29.66;44.05
11888;BME280;6003;42.756;23.130;2022-08-03T08:15:08;160137.09;;;29.79;41.92
11888;BME280;6003;42.756;23.130;2022-08-03T08:17:43;160143.81;;;29.82;42.01
11888;BME280;6003;42.756;23.130;2022-08-03T08:20:11;160126.41;;;29.75;41.01
11888;BME280;6003;42.756;23.130;2022-08-03T08:22:38;160143.81;;;29.82;41.59
11888;BME280;6003;42.756;23.130;2022-08-03T08:25:05;160171.94;;;29.93;40.65
11888;BME280;6003;42.756;23.130;2022-08-03T08:27:40;160241.59;;;30.19;44.77
11888;BME280;6003;42.756;23.130;2022-08-03T08:30:08;160267.09;;;30.29;40.42
11888;BME280;6003;42.756;23.130;2022-08-03T08:32:35;160275.13;;;30.32;39.52
11888;BME280;6003;42.756;23.130;2022-08-03T08:35:03;160299.22;;;30.41;41.30
11888;BME280;6003;42.756;23.130;2022-08-03T08:37:30;160326.06;;;30.51;39.73
11888;BME280;6003;42.756;23.130;2022-08-03T08:39:57;160318.00;;;30.48;40.19
11888;BME280;6003;42.756;23.130;2022-08-03T08:42:24;160241.59;;;30.19;39.06
11888;BME280;6003;42.756;23.130;2022-08-03T08:44:53;160216.13;;;30.09;38.30
11888;BME280;6003;42.756;23.130;2022-08-03T08:47:23;160221.47;;;30.11;40.70
11888;BME280;6003;42.756;23.130;2022-08-03T08:49:51;160259.06;;;30.26;38.83
11888;BME280;6003;42.756;23.130;2022-08-03T08:52:21;160277.84;;;30.33;38.29
11888;BME280;6003;42.756;23.130;2022-08-03T08:54:51;160356.88;;;30.63;41.39
11888;BME280;6003;42.756;23.130;2022-08-03T08:57:21;160453.44;;;31.00;39.71
11888;BME280;6003;42.756;23.130;2022-08-03T08:59:50;160535.19;;;31.31;38.04
11888;BME280;6003;42.756;23.130;2022-08-03T09:02:22;160460.13;;;31.02;40.03
11888;BME280;6003;42.756;23.130;2022-08-03T09:04:50;160376.97;;;30.71;38.17
11888;BME280;6003;42.756;23.130;2022-08-03T09:07:17;160308.66;;;30.45;38.81
11888;BME280;6003;42.756;23.130;2022-08-03T09:09:44;160318.00;;;30.48;37.41
11888;BME280;6003;42.756;23.130;2022-08-03T09:12:11;160336.75;;;30.55;38.88
11888;BME280;6003;42.756;23.130;2022-08-03T09:14:38;160358.19;;;30.64;37.32
11888;BME280;6003;42.756;23.130;2022-08-03T09:17:05;160395.72;;;30.78;37.90
11888;BME280;6003;42.756;23.130;2022-08-03T09:19:35;160366.22;;;30.67;37.41
11888;BME280;6003;42.756;23.130;2022-08-03T09:22:10;160348.84;;;30.60;35.76
11888;BME280;6003;42.756;23.130;2022-08-03T09:24:38;160441.34;;;30.95;36.07
11888;BME280;6003;42.756;23.130;2022-08-03T09:27:20;160486.91;;;31.13;36.35
11888;BME280;6003;42.756;23.130;2022-08-03T09:29:47;160482.91;;;31.11;36.79
11888;BME280;6003;42.756;23.130;2022-08-03T09:32:18;160520.44;;;31.25;37.42
11888;BME280;6003;42.756;23.130;2022-08-03T09:34:48;160383.69;;;30.73;36.42
11888;BME280;6003;42.756;23.130;2022-08-03T09:37:17;160326.06;;;30.51;37.29
11888;BME280;6003;42.756;23.130;2022-08-03T09:39:45;160138.44;;;29.80;37.53
11888;BME280;6003;42.756;23.130;2022-08-03T09:42:13;160242.94;;;30.20;38.29
11888;BME280;6003;42.756;23.130;2022-08-03T09:44:43;160309.97;;;30.45;36.97
11888;BME280;6003;42.756;23.130;2022-08-03T09:47:11;160363.56;;;30.66;36.99
11888;BME280;6003;42.756;23.130;2022-08-03T09:49:40;160469.50;;;31.06;37.29
11888;BME280;6003;42.756;23.130;2022-08-03T09:52:28;160591.53;;;31.53;38.21
11888;BME280;6003;42.756;23.130;2022-08-03T09:54:55;160543.25;;;31.34;36.62
11888;BME280;6003;42.756;23.130;2022-08-03T09:57:23;160431.97;;;30.92;39.64
11888;BME280;6003;42.756;23.130;2022-08-03T09:59:51;160499.00;;;31.17;37.61
11888;BME280;6003;42.756;23.130;2022-08-03T10:02:22;160413.22;;;30.85;36.23
11888;BME280;6003;42.756;23.130;2022-08-03T10:04:50;160287.19;;;30.37;38.54
11888;BME280;6003;42.756;23.130;2022-08-03T10:07:17;160425.25;;;30.89;38.95
11888;BME280;6003;42.756;23.130;2022-08-03T10:09:54;160411.84;;;30.84;38.01
11888;BME280;6003;42.756;23.130;2022-08-03T10:12:23;160293.91;;;30.39;37.87
11888;BME280;6003;42.756;23.130;2022-08-03T10:14:50;160386.34;;;30.74;38.22
11888;BME280;6003;42.756;23.130;2022-08-03T10:17:18;160438.69;;;30.94;38.88
11888;BME280;6003;42.756;23.130;2022-08-03T10:19:45;160415.88;;;30.86;37.32
11888;BME280;6003;42.756;23.130;2022-08-03T10:22:14;160466.84;;;31.05;38.43
11888;BME280;6003;42.756;23.130;2022-08-03T10:24:48;160535.19;;;31.31;40.55
11888;BME280;6003;42.756;23.130;2022-08-03T10:27:19;160599.56;;;31.56;36.83
11888;BME280;6003;42.756;23.130;2022-08-03T10:29:51;160497.66;;;31.17;36.78
11888;BME280;6003;42.756;23.130;2022-08-03T10:32:23;160623.69;;;31.65;39.28
11888;BME280;6003;42.756;23.130;2022-08-03T10:34:53;160862.56;;;32.56;39.14
11888;BME280;6003;42.756;23.130;2022-08-03T12:52:06;160005.84;;;29.29;44.63
11888;BME280;6003;42.756;23.130;2022-08-03T12:54:33;160027.22;;;29.37;43.69
11888;BME280;6003;42.756;23.130;2022-08-03T12:57:02;160049.97;;;29.46;40.97
11888;BME280;6003;42.756;23.130;2022-08-03T12:59:31;160087.47;;;29.60;40.03
11888;BME280;6003;42.756;23.130;2022-08-03T13:01:59;160100.94;;;29.65;41.68
11888;BME280;6003;42.756;23.130;2022-08-03T13:04:27;160135.78;;;29.79;44.92
11888;BME280;6003;42.756;23.130;2022-08-03T13:06:58;160139.75;;;29.80;43.24
11888;BME280;6003;42.756;23.130;2022-08-03T13:09:27;160167.91;;;29.91;44.37
11888;BME280;6003;42.756;23.130;2022-08-03T13:12:07;160162.53;;;29.89;43.85
11888;BME280;6003;42.756;23.130;2022-08-03T13:14:34;160200.03;;;30.03;43.30
11888;BME280;6003;42.756;23.130;2022-08-03T13:17:01;160210.78;;;30.07;42.25
11888;BME280;6003;42.756;23.130;2022-08-03T13:19:28;160233.56;;;30.16;42.33
11888;BME280;6003;42.756;23.130;2022-08-03T13:21:54;160218.81;;;30.10;43.77
11888;BME280;6003;42.756;23.130;2022-08-03T13:24:21;160251.00;;;30.23;41.95
11888;BME280;6003;42.756;23.130;2022-08-03T13:26:50;160264.44;;;30.28;42.14
11888;BME280;6003;42.756;23.130;2022-08-03T13:29:17;160277.84;;;30.33;41.62
11888;BME280;6003;42.756;23.130;2022-08-03T13:31:44;160291.19;;;30.38;41.70
11888;BME280;6003;42.756;23.130;2022-08-03T13:34:11;160272.47;;;30.31;44.01
11888;BME280;6003;42.756;23.130;2022-08-03T13:36:37;160292.56;;;30.39;44.99
11888;BME280;6003;42.756;23.130;2022-08-03T13:39:04;160267.09;;;30.29;42.69
11888;BME280;6003;42.756;23.130;2022-08-03T13:41:31;160166.56;;;29.90;43.14
11888;BME280;6003;42.756;23.130;2022-08-03T13:43:59;160122.38;;;29.74;44.12
11888;BME280;6003;42.756;23.130;2022-08-03T13:46:26;160060.72;;;29.50;45.75
11888;BME280;6003;42.756;23.130;2022-08-03T13:48:53;160052.69;;;29.47;46.43
11888;BME280;6003;42.756;23.130;2022-08-03T13:51:20;159984.41;;;29.21;44.95
11888;BME280;6003;42.756;23.130;2022-08-03T13:53:48;159957.59;;;29.11;46.37
11888;BME280;6003;42.756;23.130;2022-08-03T13:56:15;159937.50;;;29.03;47.05
11888;BME280;6003;42.756;23.130;2022-08-03T13:58:41;159916.06;;;28.95;46.61
11888;BME280;6003;42.756;23.130;2022-08-03T14:01:10;159853.13;;;28.71;46.07
11888;BME280;6003;42.756;23.130;2022-08-03T14:03:37;159725.91;;;28.22;48.05
11888;BME280;6003;42.756;23.130;2022-08-03T14:06:03;159712.59;;;28.17;49.23
11888;BME280;6003;42.756;23.130;2022-08-03T14:08:31;159671.06;;;28.01;49.05
11888;BME280;6003;42.756;23.130;2022-08-03T14:10:58;159594.78;;;27.72;50.01
11888;BME280;6003;42.756;23.130;2022-08-03T14:13:25;159554.66;;;27.57;48.87
11888;BME280;6003;42.756;23.130;2022-08-03T14:15:52;159517.19;;;27.42;51.17
11888;BME280;6003;42.756;23.130;2022-08-03T14:18:21;159518.53;;;27.43;49.59
11888;BME280;6003;42.756;23.130;2022-08-03T14:20:48;159482.41;;;27.29;49.62
11888;BME280;6003;42.756;23.130;2022-08-03T14:23:15;159465.03;;;27.22;49.52
11888;BME280;6003;42.756;23.130;2022-08-03T14:25:42;159418.19;;;27.05;50.12
11888;BME280;6003;42.756;23.130;2022-08-03T14:28:09;159380.75;;;26.90;51.04
11888;BME280;6003;42.756;23.130;2022-08-03T14:30:36;159380.75;;;26.90;51.05
11888;BME280;6003;42.756;23.130;2022-08-03T14:33:03;159374.06;;;26.88;51.38
11888;BME280;6003;42.756;23.130;2022-08-03T14:35:32;159343.31;;;26.76;52.02
11888;BME280;6003;42.756;23.130;2022-08-03T14:37:59;159271.06;;;26.48;52.52
11888;BME280;6003;42.756;23.130;2022-08-03T14:40:25;159169.44;;;26.09;53.66
11888;BME280;6003;42.756;23.130;2022-08-03T14:42:52;159154.78;;;26.04;53.79
11888;BME280;6003;42.756;23.130;2022-08-03T14:45:19;159110.69;;;25.87;53.39
11888;BME280;6003;42.756;23.130;2022-08-03T14:47:46;159075.88;;;25.74;53.70
11888;BME280;6003;42.756;23.130;2022-08-03T14:50:13;159034.50;;;25.58;53.43
11888;BME280;6003;42.756;23.130;2022-08-03T14:52:42;159053.16;;;25.65;52.74
11888;BME280;6003;42.756;23.130;2022-08-03T14:55:09;159083.91;;;25.77;52.47
11888;BME280;6003;42.756;23.130;2022-08-03T14:57:35;159051.84;;;25.64;52.23
11888;BME280;6003;42.756;23.130;2022-08-03T15:00:03;159059.84;;;25.67;52.71
11888;BME280;6003;42.756;23.130;2022-08-03T15:02:30;159083.91;;;25.77;53.88
11888;BME280;6003;42.756;23.130;2022-08-03T15:04:57;159081.25;;;25.76;52.84
11888;BME280;6003;42.756;23.130;2022-08-03T15:07:24;159081.25;;;25.76;52.99
11888;BME280;6003;42.756;23.130;2022-08-03T15:09:52;159086.56;;;25.78;52.29
11888;BME280;6003;42.756;23.130;2022-08-03T15:12:19;159078.53;;;25.75;52.14